sensor_id;sensor_type;location;lat;lon;timestamp;pressure;altitude;pressure_sealevel;temperature;humidity
59829;BME280;45708;51.848;107.620;2022-09-09T00:03:44;94658.97;;;25.23;42.77
59829;BME280;45708;51.848;107.620;2022-09-09T00:13:55;94661.09;;;27.15;38.71
59829;BME280;45708;51.848;107.620;2022-09-09T00:19:09;94663.53;;;28.11;36.58
59829;BME280;45708;51.848;107.620;2022-09-09T00:29:54;94668.50;;;28.98;34.23
59829;BME280;45708;51.848;107.620;2022-09-09T00:35:14;94665.03;;;29.41;33.50
59829;BME280;45708;51.848;107.620;2022-09-09T00:40:33;94670.69;;;28.80;34.34
59829;BME280;45708;51.848;107.620;2022-09-09T00:51:06;94648.88;;;29.76;31.56
59829;BME280;45708;51.848;107.620;2022-09-09T00:56:17;94663.78;;;30.30;30.66
59829;BME280;45708;51.848;107.620;2022-09-09T01:01:20;94661.72;;;30.07;30.72
59829;BME280;45708;51.848;107.620;2022-09-09T01:06:32;94656.44;;;30.65;29.99
59829;BME280;45708;51.848;107.620;2022-09-09T01:16:41;94646.25;;;27.91;32.21
59829;BME280;45708;51.848;107.620;2022-09-09T01:21:53;94650.63;;;27.96;31.64
59829;BME280;45708;51.848;107.620;2022-09-09T01:27:00;94655.09;;;29.45;29.80
59829;BME280;45708;51.848;107.620;2022-09-09T01:32:41;94642.66;;;30.97;28.53
59829;BME280;45708;51.848;107.620;2022-09-09T01:37:42;94645.41;;;30.97;27.57
59829;BME280;45708;51.848;107.620;2022-09-09T01:42:43;94632.28;;;30.48;28.83
59829;BME280;45708;51.848;107.620;2022-09-09T01:47:45;94636.75;;;29.89;28.96
59829;BME280;45708;51.848;107.620;2022-09-09T01:52:50;94618.34;;;30.02;28.80
59829;BME280;45708;51.848;107.620;2022-09-09T02:03:28;94608.38;;;30.76;27.92
59829;BME280;45708;51.848;107.620;2022-09-09T02:08:48;94596.72;;;30.99;27.55
59829;BME280;45708;51.848;107.620;2022-09-09T02:13:53;94607.00;;;29.37;28.06
59829;BME280;45708;51.848;107.620;2022-09-09T02:19:08;94607.44;;;27.78;31.70
59829;BME280;45708;51.848;107.620;2022-09-09T02:24:13;94619.38;;;25.74;34.27
59829;BME280;45708;51.848;107.620;2022-09-09T02:29:25;94617.84;;;24.74;35.30
59829;BME280;45708;51.848;107.620;2022-09-09T02:34:30;94593.81;;;24.12;36.46
59829;BME280;45708;51.848;107.620;2022-09-09T02:39:32;94597.91;;;24.01;36.42
59829;BME280;45708;51.848;107.620;2022-09-09T02:44:33;94582.00;;;23.74;35.88
59829;BME280;45708;51.848;107.620;2022-09-09T02:55:09;94585.16;;;22.96;36.44
59829;BME280;45708;51.848;107.620;2022-09-09T03:00:13;94585.53;;;23.03;36.21
59829;BME280;45708;51.848;107.620;2022-09-09T03:05:14;94581.81;;;22.91;36.25
59829;BME280;45708;51.848;107.620;2022-09-09T03:10:15;94566.44;;;22.91;36.52
59829;BME280;45708;51.848;107.620;2022-09-09T03:15:16;94560.59;;;23.29;35.68
59829;BME280;45708;51.848;107.620;2022-09-09T03:20:17;94560.44;;;22.94;35.86
59829;BME280;45708;51.848;107.620;2022-09-09T03:25:18;94560.22;;;23.13;35.75
59829;BME280;45708;51.848;107.620;2022-09-09T03:30:19;94550.63;;;22.98;35.86
59829;BME280;45708;51.848;107.620;2022-09-09T03:35:20;94534.94;;;23.40;36.33
59829;BME280;45708;51.848;107.620;2022-09-09T03:40:21;94534.03;;;23.53;35.57
59829;BME280;45708;51.848;107.620;2022-09-09T03:45:22;94527.47;;;23.94;35.64
59829;BME280;45708;51.848;107.620;2022-09-09T03:50:23;94520.19;;;24.03;35.03
59829;BME280;45708;51.848;107.620;2022-09-09T03:55:24;94506.19;;;24.01;35.37
59829;BME280;45708;51.848;107.620;2022-09-09T04:00:25;94501.19;;;23.51;36.20
59829;BME280;45708;51.848;107.620;2022-09-09T04:05:26;94491.63;;;23.85;36.04
59829;BME280;45708;51.848;107.620;2022-09-09T04:10:27;94492.09;;;24.04;35.38
59829;BME280;45708;51.848;107.620;2022-09-09T04:15:28;94490.34;;;24.08;35.29
59829;BME280;45708;51.848;107.620;2022-09-09T04:20:29;94491.59;;;24.02;35.95
59829;BME280;45708;51.848;107.620;2022-09-09T04:25:29;94478.91;;;23.94;35.73
59829;BME280;45708;51.848;107.620;2022-09-09T04:30:30;94470.97;;;23.89;36.35
59829;BME280;45708;51.848;107.620;2022-09-09T04:35:31;94466.19;;;24.20;35.50
59829;BME280;45708;51.848;107.620;2022-09-09T04:40:32;94462.06;;;24.14;36.04
59829;BME280;45708;51.848;107.620;2022-09-09T04:45:33;94454.59;;;24.46;35.39
59829;BME280;45708;51.848;107.620;2022-09-09T04:50:34;94460.75;;;24.55;35.07
59829;BME280;45708;51.848;107.620;2022-09-09T04:55:35;94451.03;;;24.63;35.46
59829;BME280;45708;51.848;107.620;2022-09-09T05:00:37;94450.38;;;24.74;34.61
59829;BME280;45708;51.848;107.620;2022-09-09T05:05:38;94446.41;;;24.72;34.64
59829;BME280;45708;51.848;107.620;2022-09-09T05:10:39;94441.94;;;24.76;34.14
59829;BME280;45708;51.848;107.620;2022-09-09T05:15:40;94442.78;;;24.68;34.38
59829;BME280;45708;51.848;107.620;2022-09-09T05:20:41;94435.28;;;24.73;34.11
59829;BME280;45708;51.848;107.620;2022-09-09T05:25:41;94434.16;;;24.74;34.03
59829;BME280;45708;51.848;107.620;2022-09-09T05:30:42;94427.91;;;24.82;33.53
59829;BME280;45708;51.848;107.620;2022-09-09T05:35:43;94411.31;;;24.72;33.42
59829;BME280;45708;51.848;107.620;2022-09-09T05:40:47;94384.50;;;24.58;33.31
59829;BME280;45708;51.848;107.620;2022-09-09T05:45:57;94406.81;;;24.84;32.75
59829;BME280;45708;51.848;107.620;2022-09-09T05:50:59;94403.81;;;24.77;32.72
59829;BME280;45708;51.848;107.620;2022-09-09T05:56:05;94399.84;;;24.75;32.72
59829;BME280;45708;51.848;107.620;2022-09-09T06:01:07;94392.00;;;24.82;32.56
59829;BME280;45708;51.848;107.620;2022-09-09T06:06:13;94380.06;;;24.92;32.02
59829;BME280;45708;51.848;107.620;2022-09-09T06:11:35;94383.31;;;24.76;32.02
59829;BME280;45708;51.848;107.620;2022-09-09T06:16:36;94379.88;;;24.67;32.37
59829;BME280;45708;51.848;107.620;2022-09-09T06:21:37;94375.41;;;24.71;32.69
59829;BME280;45708;51.848;107.620;2022-09-09T06:26:39;94371.53;;;24.81;32.54
59829;BME280;45708;51.848;107.620;2022-09-09T06:31:40;94347.59;;;25.00;32.19
59829;BME280;45708;51.848;107.620;2022-09-09T06:36:41;94346.03;;;24.99;32.22
59829;BME280;45708;51.848;107.620;2022-09-09T06:41:42;94346.03;;;24.99;32.57
59829;BME280;45708;51.848;107.620;2022-09-09T06:46:43;94329.81;;;24.99;32.57
59829;BME280;45708;51.848;107.620;2022-09-09T06:51:44;94330.22;;;25.10;32.16
59829;BME280;45708;51.848;107.620;2022-09-09T06:56:45;94323.50;;;25.16;32.32
59829;BME280;45708;51.848;107.620;2022-09-09T07:01:45;94318.22;;;25.20;32.42
59829;BME280;45708;51.848;107.620;2022-09-09T07:06:46;94312.44;;;25.09;32.58
59829;BME280;45708;51.848;107.620;2022-09-09T07:11:49;94304.53;;;25.04;33.10
59829;BME280;45708;51.848;107.620;2022-09-09T07:16:51;94303.59;;;25.00;33.00
59829;BME280;45708;51.848;107.620;2022-09-09T07:21:52;94303.28;;;24.93;33.29
59829;BME280;45708;51.848;107.620;2022-09-09T07:26:53;94303.97;;;24.90;33.60
59829;BME280;45708;51.848;107.620;2022-09-09T07:31:54;94301.72;;;24.92;33.44
59829;BME280;45708;51.848;107.620;2022-09-09T07:36:55;94296.56;;;24.78;33.44
59829;BME280;45708;51.848;107.620;2022-09-09T07:41:55;94289.19;;;24.87;33.57
59829;BME280;45708;51.848;107.620;2022-09-09T07:46:56;94285.38;;;24.88;33.91
59829;BME280;45708;51.848;107.620;2022-09-09T07:51:57;94277.88;;;24.94;33.82
59829;BME280;45708;51.848;107.620;2022-09-09T07:56:58;94276.03;;;24.85;34.25
59829;BME280;45708;51.848;107.620;2022-09-09T08:01:59;94269.66;;;24.81;34.34
59829;BME280;45708;51.848;107.620;2022-09-09T08:07:00;94271.25;;;24.82;34.60
59829;BME280;45708;51.848;107.620;2022-09-09T08:12:02;94257.03;;;24.73;34.22
59829;BME280;45708;51.848;107.620;2022-09-09T08:17:02;94253.44;;;24.61;34.86
59829;BME280;45708;51.848;107.620;2022-09-09T08:22:03;94256.47;;;24.59;34.78
59829;BME280;45708;51.848;107.620;2022-09-09T08:27:04;94263.97;;;24.53;33.97
59829;BME280;45708;51.848;107.620;2022-09-09T08:32:05;94254.91;;;24.29;33.83
59829;BME280;45708;51.848;107.620;2022-09-09T08:37:06;94246.00;;;24.28;34.17
59829;BME280;45708;51.848;107.620;2022-09-09T08:52:37;94250.97;;;23.62;34.10
59829;BME280;45708;51.848;107.620;2022-09-09T08:57:39;94246.22;;;23.50;33.52
59829;BME280;45708;51.848;107.620;2022-09-09T09:03:05;94250.06;;;23.32;33.90
59829;BME280;45708;51.848;107.620;2022-09-09T09:08:35;94263.53;;;23.15;34.18
59829;BME280;45708;51.848;107.620;2022-09-09T09:18:58;94220.72;;;22.70;34.26
59829;BME280;45708;51.848;107.620;2022-09-09T09:24:00;94246.53;;;22.71;34.51
59829;BME280;45708;51.848;107.620;2022-09-09T09:29:17;94237.16;;;22.60;34.55
59829;BME280;45708;51.848;107.620;2022-09-09T09:34:18;94229.72;;;22.48;34.74
59829;BME280;45708;51.848;107.620;2022-09-09T09:39:30;94242.88;;;22.50;34.79
59829;BME280;45708;51.848;107.620;2022-09-09T09:44:32;94249.00;;;22.33;34.95
59829;BME280;45708;51.848;107.620;2022-09-09T09:49:33;94244.72;;;22.23;34.97
59829;BME280;45708;51.848;107.620;2022-09-09T09:54:38;94248.00;;;22.11;34.94
59829;BME280;45708;51.848;107.620;2022-09-09T09:59:39;94255.31;;;21.89;34.73
59829;BME280;45708;51.848;107.620;2022-09-09T10:04:40;94257.44;;;21.69;34.88
59829;BME280;45708;51.848;107.620;2022-09-09T10:09:41;94254.63;;;21.52;35.11
59829;BME280;45708;51.848;107.620;2022-09-09T10:14:53;94253.88;;;21.29;35.14
59829;BME280;45708;51.848;107.620;2022-09-09T10:20:14;94257.94;;;21.04;35.42
59829;BME280;45708;51.848;107.620;2022-09-09T10:36:19;94277.63;;;20.36;35.49
59829;BME280;45708;51.848;107.620;2022-09-09T10:42:28;94276.81;;;20.22;35.75
59829;BME280;45708;51.848;107.620;2022-09-09T10:57:43;94288.69;;;19.61;36.88
59829;BME280;45708;51.848;107.620;2022-09-09T11:02:55;94282.72;;;19.31;36.98
59829;BME280;45708;51.848;107.620;2022-09-09T11:08:35;94302.88;;;19.10;37.86
59829;BME280;45708;51.848;107.620;2022-09-09T11:19:26;94311.00;;;18.67;38.38
59829;BME280;45708;51.848;107.620;2022-09-09T11:24:34;94316.91;;;18.40;38.64
59829;BME280;45708;51.848;107.620;2022-09-09T11:29:52;94321.41;;;18.21;39.07
59829;BME280;45708;51.848;107.620;2022-09-09T11:41:02;94325.03;;;17.82;40.10
59829;BME280;45708;51.848;107.620;2022-09-09T11:46:04;94326.03;;;17.57;40.27
59829;BME280;45708;51.848;107.620;2022-09-09T11:56:13;94342.31;;;17.27;41.93
59829;BME280;45708;51.848;107.620;2022-09-09T12:06:50;94359.03;;;17.03;42.45
59829;BME280;45708;51.848;107.620;2022-09-09T12:12:04;94369.41;;;17.00;42.74
59829;BME280;45708;51.848;107.620;2022-09-09T12:27:34;94385.19;;;16.96;42.47
59829;BME280;45708;51.848;107.620;2022-09-09T12:32:37;94388.44;;;16.88;42.36
59829;BME280;45708;51.848;107.620;2022-09-09T12:37:52;94393.53;;;16.80;42.63
59829;BME280;45708;51.848;107.620;2022-09-09T12:42:56;94409.09;;;16.67;42.91
59829;BME280;45708;51.848;107.620;2022-09-09T12:48:10;94406.41;;;16.62;42.96
59829;BME280;45708;51.848;107.620;2022-09-09T12:53:34;94409.91;;;16.48;43.26
59829;BME280;45708;51.848;107.620;2022-09-09T12:58:37;94412.59;;;16.37;43.55
59829;BME280;45708;51.848;107.620;2022-09-09T13:03:42;94425.94;;;16.37;43.37
59829;BME280;45708;51.848;107.620;2022-09-09T13:08:44;94441.94;;;16.32;43.43
59829;BME280;45708;51.848;107.620;2022-09-09T13:13:51;94450.50;;;16.19;43.67
59829;BME280;45708;51.848;107.620;2022-09-09T13:18:53;94447.31;;;16.12;44.09
59829;BME280;45708;51.848;107.620;2022-09-09T13:23:54;94451.00;;;16.21;43.98
59829;BME280;45708;51.848;107.620;2022-09-09T13:28:55;94468.88;;;16.26;44.13
59829;BME280;45708;51.848;107.620;2022-09-09T13:39:25;94484.06;;;16.30;44.38
59829;BME280;45708;51.848;107.620;2022-09-09T13:44:27;94493.66;;;16.16;44.51
59829;BME280;45708;51.848;107.620;2022-09-09T13:49:30;94512.31;;;16.01;44.04
59829;BME280;45708;51.848;107.620;2022-09-09T13:54:31;94511.50;;;15.80;44.54
59829;BME280;45708;51.848;107.620;2022-09-09T13:59:32;94525.09;;;15.68;44.77
59829;BME280;45708;51.848;107.620;2022-09-09T14:04:33;94543.66;;;15.53;44.43
59829;BME280;45708;51.848;107.620;2022-09-09T14:09:34;94555.34;;;15.47;44.41
59829;BME280;45708;51.848;107.620;2022-09-09T14:14:35;94556.16;;;15.42;43.87
59829;BME280;45708;51.848;107.620;2022-09-09T14:19:36;94560.88;;;15.30;43.55
59829;BME280;45708;51.848;107.620;2022-09-09T14:24:37;94561.63;;;15.20;43.91
59829;BME280;45708;51.848;107.620;2022-09-09T14:29:37;94558.41;;;15.08;43.73
59829;BME280;45708;51.848;107.620;2022-09-09T14:34:38;94574.13;;;15.15;43.59
59829;BME280;45708;51.848;107.620;2022-09-09T14:39:39;94592.81;;;15.30;42.59
59829;BME280;45708;51.848;107.620;2022-09-09T14:44:40;94617.28;;;15.22;42.95
59829;BME280;45708;51.848;107.620;2022-09-09T14:49:41;94639.31;;;15.17;42.78
59829;BME280;45708;51.848;107.620;2022-09-09T14:54:41;94632.88;;;15.08;42.87
59829;BME280;45708;51.848;107.620;2022-09-09T14:59:42;94633.06;;;14.91;43.18
59829;BME280;45708;51.848;107.620;2022-09-09T15:04:43;94627.09;;;14.74;43.44
59829;BME280;45708;51.848;107.620;2022-09-09T15:09:44;94655.66;;;14.94;43.10
59829;BME280;45708;51.848;107.620;2022-09-09T15:14:45;94658.47;;;14.77;43.42
59829;BME280;45708;51.848;107.620;2022-09-09T15:19:46;94644.06;;;14.68;43.67
59829;BME280;45708;51.848;107.620;2022-09-09T15:24:47;94649.91;;;14.65;43.55
59829;BME280;45708;51.848;107.620;2022-09-09T15:29:48;94651.78;;;14.70;43.25
59829;BME280;45708;51.848;107.620;2022-09-09T15:34:48;94655.78;;;14.72;42.99
59829;BME280;45708;51.848;107.620;2022-09-09T15:39:49;94663.00;;;14.77;42.49
59829;BME280;45708;51.848;107.620;2022-09-09T15:44:50;94663.47;;;14.69;42.77
59829;BME280;45708;51.848;107.620;2022-09-09T15:49:51;94682.66;;;14.76;42.78
59829;BME280;45708;51.848;107.620;2022-09-09T15:54:52;94680.25;;;14.74;42.40
59829;BME280;45708;51.848;107.620;2022-09-09T15:59:53;94677.00;;;14.62;42.61
59829;BME280;45708;51.848;107.620;2022-09-09T16:04:53;94662.25;;;14.49;43.24
59829;BME280;45708;51.848;107.620;2022-09-09T16:09:54;94625.66;;;14.29;43.52
59829;BME280;45708;51.848;107.620;2022-09-09T16:14:55;94615.25;;;14.23;43.79
59829;BME280;45708;51.848;107.620;2022-09-09T16:19:56;94604.75;;;14.06;44.54
59829;BME280;45708;51.848;107.620;2022-09-09T16:24:57;94621.56;;;14.17;44.50
59829;BME280;45708;51.848;107.620;2022-09-09T16:29:57;94645.41;;;14.12;44.91
59829;BME280;45708;51.848;107.620;2022-09-09T16:34:58;94660.34;;;14.18;44.87
59829;BME280;45708;51.848;107.620;2022-09-09T16:39:59;94638.09;;;14.24;44.64
59829;BME280;45708;51.848;107.620;2022-09-09T16:45:00;94708.91;;;14.40;44.12
59829;BME280;45708;51.848;107.620;2022-09-09T16:50:01;94706.38;;;14.50;44.22
59829;BME280;45708;51.848;107.620;2022-09-09T16:55:02;94697.88;;;14.48;44.31
59829;BME280;45708;51.848;107.620;2022-09-09T17:00:04;94703.53;;;14.35;44.75
59829;BME280;45708;51.848;107.620;2022-09-09T17:05:05;94755.59;;;14.31;44.82
59829;BME280;45708;51.848;107.620;2022-09-09T17:10:06;94741.25;;;14.32;44.87
59829;BME280;45708;51.848;107.620;2022-09-09T17:15:09;94764.13;;;14.33;44.66
59829;BME280;45708;51.848;107.620;2022-09-09T17:20:10;94776.84;;;14.31;45.17
59829;BME280;45708;51.848;107.620;2022-09-09T17:25:11;94767.22;;;14.25;45.27
59829;BME280;45708;51.848;107.620;2022-09-09T17:30:12;94842.56;;;14.19;45.55
59829;BME280;45708;51.848;107.620;2022-09-09T17:35:13;94873.53;;;14.08;46.19
59829;BME280;45708;51.848;107.620;2022-09-09T17:40:14;94842.31;;;13.98;46.46
59829;BME280;45708;51.848;107.620;2022-09-09T17:45:15;94866.75;;;13.79;47.31
59829;BME280;45708;51.848;107.620;2022-09-09T17:50:16;94863.09;;;13.63;48.12
59829;BME280;45708;51.848;107.620;2022-09-09T17:55:16;94893.56;;;13.44;48.40
59829;BME280;45708;51.848;107.620;2022-09-09T18:00:17;94891.72;;;13.27;49.06
59829;BME280;45708;51.848;107.620;2022-09-09T18:05:18;94908.44;;;13.16;49.10
59829;BME280;45708;51.848;107.620;2022-09-09T18:10:19;94885.63;;;13.15;49.07
59829;BME280;45708;51.848;107.620;2022-09-09T18:15:20;94913.75;;;13.16;48.88
59829;BME280;45708;51.848;107.620;2022-09-09T18:20:20;94918.97;;;13.11;49.24
59829;BME280;45708;51.848;107.620;2022-09-09T18:25:24;94911.19;;;13.04;49.24
59829;BME280;45708;51.848;107.620;2022-09-09T18:30:25;94920.88;;;12.99;49.67
59829;BME280;45708;51.848;107.620;2022-09-09T18:35:25;94916.03;;;12.96;49.42
59829;BME280;45708;51.848;107.620;2022-09-09T18:40:31;94923.09;;;12.90;49.96
59829;BME280;45708;51.848;107.620;2022-09-09T18:45:35;94936.16;;;12.80;50.32
59829;BME280;45708;51.848;107.620;2022-09-09T18:50:35;94933.97;;;12.77;50.21
59829;BME280;45708;51.848;107.620;2022-09-09T18:55:36;94934.53;;;12.79;50.31
59829;BME280;45708;51.848;107.620;2022-09-09T19:00:38;94912.84;;;12.54;50.75
59829;BME280;45708;51.848;107.620;2022-09-09T19:05:39;94968.97;;;12.62;51.28
59829;BME280;45708;51.848;107.620;2022-09-09T19:10:40;94966.31;;;12.62;51.03
59829;BME280;45708;51.848;107.620;2022-09-09T19:15:41;94935.66;;;12.66;51.17
59829;BME280;45708;51.848;107.620;2022-09-09T19:20:42;94933.72;;;12.62;51.45
59829;BME280;45708;51.848;107.620;2022-09-09T19:25:42;94937.84;;;12.58;52.10
59829;BME280;45708;51.848;107.620;2022-09-09T19:30:43;94918.25;;;12.59;51.94
59829;BME280;45708;51.848;107.620;2022-09-09T19:35:44;94935.66;;;12.66;52.64
59829;BME280;45708;51.848;107.620;2022-09-09T19:40:45;94936.69;;;12.65;52.29
59829;BME280;45708;51.848;107.620;2022-09-09T19:45:59;94955.91;;;12.72;52.61
59829;BME280;45708;51.848;107.620;2022-09-09T19:51:05;94978.72;;;12.73;52.88
59829;BME280;45708;51.848;107.620;2022-09-09T19:56:07;94991.97;;;12.73;52.96
59829;BME280;45708;51.848;107.620;2022-09-09T20:01:16;94998.31;;;12.72;53.37
59829;BME280;45708;51.848;107.620;2022-09-09T20:06:19;94998.22;;;12.67;53.64
59829;BME280;45708;51.848;107.620;2022-09-09T20:11:21;95011.78;;;12.59;53.64
59829;BME280;45708;51.848;107.620;2022-09-09T20:16:26;95019.75;;;12.59;54.43
59829;BME280;45708;51.848;107.620;2022-09-09T20:21:34;95021.81;;;12.57;54.88
59829;BME280;45708;51.848;107.620;2022-09-09T20:26:36;95038.66;;;12.39;55.61
59829;BME280;45708;51.848;107.620;2022-09-09T20:31:38;95030.94;;;12.38;56.24
59829;BME280;45708;51.848;107.620;2022-09-09T20:36:39;95049.50;;;12.26;55.98
59829;BME280;45708;51.848;107.620;2022-09-09T20:41:41;95054.22;;;12.36;56.46
59829;BME280;45708;51.848;107.620;2022-09-09T20:46:47;95057.91;;;12.23;55.76
59829;BME280;45708;51.848;107.620;2022-09-09T20:51:49;95068.72;;;12.33;56.24
59829;BME280;45708;51.848;107.620;2022-09-09T20:56:51;95086.47;;;12.44;56.11
59829;BME280;45708;51.848;107.620;2022-09-09T21:01:53;95083.47;;;12.41;56.45
59829;BME280;45708;51.848;107.620;2022-09-09T21:06:54;95093.72;;;12.49;56.71
59829;BME280;45708;51.848;107.620;2022-09-09T21:11:55;95123.81;;;12.43;56.84
59829;BME280;45708;51.848;107.620;2022-09-09T21:16:56;95116.75;;;12.37;57.61
59829;BME280;45708;51.848;107.620;2022-09-09T21:21:58;95115.59;;;12.33;57.94
59829;BME280;45708;51.848;107.620;2022-09-09T21:26:59;95147.72;;;12.36;58.10
59829;BME280;45708;51.848;107.620;2022-09-09T21:32:00;95148.66;;;12.30;58.53
59829;BME280;45708;51.848;107.620;2022-09-09T21:37:01;95142.75;;;12.16;58.59
59829;BME280;45708;51.848;107.620;2022-09-09T21:42:02;95134.69;;;12.11;58.77
59829;BME280;45708;51.848;107.620;2022-09-09T21:47:03;95109.22;;;12.10;59.35
59829;BME280;45708;51.848;107.620;2022-09-09T21:52:04;95110.22;;;11.86;59.32
59829;BME280;45708;51.848;107.620;2022-09-09T21:57:04;95125.47;;;12.02;59.18
59829;BME280;45708;51.848;107.620;2022-09-09T22:02:05;95109.13;;;12.05;59.09
59829;BME280;45708;51.848;107.620;2022-09-09T22:07:06;95115.09;;;12.12;58.75
59829;BME280;45708;51.848;107.620;2022-09-09T22:12:07;95122.59;;;12.15;59.19
59829;BME280;45708;51.848;107.620;2022-09-09T22:17:08;95116.59;;;12.08;59.03
59829;BME280;45708;51.848;107.620;2022-09-09T22:22:08;95135.53;;;11.82;60.11
59829;BME280;45708;51.848;107.620;2022-09-09T22:27:12;95117.44;;;11.61;62.26
59829;BME280;45708;51.848;107.620;2022-09-09T22:32:13;95130.28;;;11.45;62.65
59829;BME280;45708;51.848;107.620;2022-09-09T22:37:14;95143.97;;;11.24;63.49
59829;BME280;45708;51.848;107.620;2022-09-09T22:42:14;95162.63;;;11.29;64.09
59829;BME280;45708;51.848;107.620;2022-09-09T22:47:15;95148.44;;;11.23;64.40
59829;BME280;45708;51.848;107.620;2022-09-09T22:52:16;95141.75;;;11.21;64.67
59829;BME280;45708;51.848;107.620;2022-09-09T22:57:17;95151.72;;;11.19;64.80
59829;BME280;45708;51.848;107.620;2022-09-09T23:02:18;95182.16;;;11.28;64.69
59829;BME280;45708;51.848;107.620;2022-09-09T23:07:19;95193.47;;;11.35;65.08
59829;BME280;45708;51.848;107.620;2022-09-09T23:12:20;95196.84;;;11.42;65.50
59829;BME280;45708;51.848;107.620;2022-09-09T23:17:21;95207.56;;;11.29;66.38
59829;BME280;45708;51.848;107.620;2022-09-09T23:22:23;95202.28;;;11.11;67.31
59829;BME280;45708;51.848;107.620;2022-09-09T23:27:24;95204.16;;;10.85;68.74
59829;BME280;45708;51.848;107.620;2022-09-09T23:32:24;95237.78;;;10.47;70.47
59829;BME280;45708;51.848;107.620;2022-09-09T23:37:25;95236.63;;;9.98;73.87
59829;BME280;45708;51.848;107.620;2022-09-09T23:42:26;95217.94;;;9.61;76.04
59829;BME280;45708;51.848;107.620;2022-09-09T23:47:27;95232.16;;;9.54;78.06
59829;BME280;45708;51.848;107.620;2022-09-09T23:52:28;95194.09;;;9.36;79.78
59829;BME280;45708;51.848;107.620;2022-09-09T23:57:29;95223.31;;;9.35;81.25
